Aviation Digital Data Service (ADDS)

Output produced by TAFs form (1610 UTC 05 May 2016)
found at http://aviationweather.gov/adds/tafs/
 
KRIL 051120Z 0512/0612 06004KT P6SM FEW250 
     FM051500 00000KT P6SM SCT250 
     FM052100 25006KT P6SM SCT250 
     FM052300 22009G15KT P6SM BKN250 
     FM060700 15006KT P6SM BKN250 
     FM061000 11007KT P6SM BKN250